sensor_id;sensor_type;location;lat;lon;timestamp;temperature;humidity
45715;DHT22;31430;61.646;24.704;2023-02-04T00:00:47;-7.20;99.90
45715;DHT22;31430;61.646;24.704;2023-02-04T00:03:16;-7.20;99.90
45715;DHT22;31430;61.646;24.704;2023-02-04T00:05:43;-7.20;99.90
45715;DHT22;31430;61.646;24.704;2023-02-04T00:08:09;-7.20;99.90
45715;DHT22;31430;61.646;24.704;2023-02-04T00:10:35;-7.10;99.90
45715;DHT22;31430;61.646;24.704;2023-02-04T00:13:02;-7.10;99.90
45715;DHT22;31430;61.646;24.704;2023-02-04T00:15:29;-7.00;99.90
45715;DHT22;31430;61.646;24.704;2023-02-04T00:17:55;-7.10;99.90
45715;DHT22;31430;61.646;24.704;2023-02-04T00:20:21;-7.10;99.90
45715;DHT22;31430;61.646;24.704;2023-02-04T00:22:47;-7.10;99.90
45715;DHT22;31430;61.646;24.704;2023-02-04T00:25:12;-7.10;99.90
45715;DHT22;31430;61.646;24.704;2023-02-04T00:27:38;-7.10;99.90
45715;DHT22;31430;61.646;24.704;2023-02-04T00:30:05;-7.10;99.90
45715;DHT22;31430;61.646;24.704;2023-02-04T00:32:31;-7.10;99.90
45715;DHT22;31430;61.646;24.704;2023-02-04T00:34:57;-7.10;99.90
45715;DHT22;31430;61.646;24.704;2023-02-04T00:37:23;-7.10;99.90
45715;DHT22;31430;61.646;24.704;2023-02-04T00:39:49;-7.10;99.90
45715;DHT22;31430;61.646;24.704;2023-02-04T00:42:14;-7.10;99.90
45715;DHT22;31430;61.646;24.704;2023-02-04T00:44:40;-7.20;99.90
45715;DHT22;31430;61.646;24.704;2023-02-04T00:47:06;-7.20;99.90
45715;DHT22;31430;61.646;24.704;2023-02-04T00:49:35;-7.10;99.90
45715;DHT22;31430;61.646;24.704;2023-02-04T00:52:00;-7.10;99.90
45715;DHT22;31430;61.646;24.704;2023-02-04T00:54:26;-7.10;99.90
45715;DHT22;31430;61.646;24.704;2023-02-04T00:56:52;-7.10;99.90
45715;DHT22;31430;61.646;24.704;2023-02-04T00:59:18;-7.10;99.90
45715;DHT22;31430;61.646;24.704;2023-02-04T01:01:43;-7.20;99.90
45715;DHT22;31430;61.646;24.704;2023-02-04T01:04:09;-7.20;99.90
45715;DHT22;31430;61.646;24.704;2023-02-04T01:06:35;-7.20;99.90
45715;DHT22;31430;61.646;24.704;2023-02-04T01:09:02;-7.10;99.90
45715;DHT22;31430;61.646;24.704;2023-02-04T01:11:29;-7.10;99.90
45715;DHT22;31430;61.646;24.704;2023-02-04T01:13:55;-7.20;99.90
45715;DHT22;31430;61.646;24.704;2023-02-04T01:16:21;-7.10;99.90
45715;DHT22;31430;61.646;24.704;2023-02-04T01:18:47;-7.10;99.90
45715;DHT22;31430;61.646;24.704;2023-02-04T01:21:12;-7.10;99.90
45715;DHT22;31430;61.646;24.704;2023-02-04T01:23:38;-7.10;99.90
45715;DHT22;31430;61.646;24.704;2023-02-04T01:26:04;-7.10;99.90
45715;DHT22;31430;61.646;24.704;2023-02-04T01:28:29;-7.10;99.90
45715;DHT22;31430;61.646;24.704;2023-02-04T01:30:55;-7.00;99.90
45715;DHT22;31430;61.646;24.704;2023-02-04T01:33:21;-7.00;99.90
45715;DHT22;31430;61.646;24.704;2023-02-04T01:35:47;-7.00;99.90
45715;DHT22;31430;61.646;24.704;2023-02-04T01:38:12;-7.00;99.90
45715;DHT22;31430;61.646;24.704;2023-02-04T01:40:39;-7.00;99.90
45715;DHT22;31430;61.646;24.704;2023-02-04T01:43:05;-7.00;99.90
45715;DHT22;31430;61.646;24.704;2023-02-04T01:45:31;-7.00;99.90
45715;DHT22;31430;61.646;24.704;2023-02-04T01:47:59;-7.00;99.90
45715;DHT22;31430;61.646;24.704;2023-02-04T01:50:25;-7.00;99.90
45715;DHT22;31430;61.646;24.704;2023-02-04T01:52:50;-7.10;99.90
45715;DHT22;31430;61.646;24.704;2023-02-04T01:55:27;-7.10;99.90
45715;DHT22;31430;61.646;24.704;2023-02-04T01:57:54;-7.10;99.90
45715;DHT22;31430;61.646;24.704;2023-02-04T02:00:29;-7.10;99.90
45715;DHT22;31430;61.646;24.704;2023-02-04T02:02:55;-7.10;99.90
45715;DHT22;31430;61.646;24.704;2023-02-04T02:05:24;-7.10;99.90
45715;DHT22;31430;61.646;24.704;2023-02-04T02:07:53;-7.10;99.90
45715;DHT22;31430;61.646;24.704;2023-02-04T02:10:20;-7.20;99.90
45715;DHT22;31430;61.646;24.704;2023-02-04T02:12:47;-7.20;99.90
45715;DHT22;31430;61.646;24.704;2023-02-04T02:15:13;-7.20;99.90
45715;DHT22;31430;61.646;24.704;2023-02-04T02:17:39;-7.20;99.90
45715;DHT22;31430;61.646;24.704;2023-02-04T02:20:08;-7.30;99.90
45715;DHT22;31430;61.646;24.704;2023-02-04T02:25:25;-7.20;99.90
45715;DHT22;31430;61.646;24.704;2023-02-04T02:27:51;-7.20;99.90
45715;DHT22;31430;61.646;24.704;2023-02-04T02:30:17;-7.30;99.90
45715;DHT22;31430;61.646;24.704;2023-02-04T02:32:45;-7.30;99.90
45715;DHT22;31430;61.646;24.704;2023-02-04T02:35:12;-7.30;99.90
45715;DHT22;31430;61.646;24.704;2023-02-04T02:37:38;-7.40;99.90
45715;DHT22;31430;61.646;24.704;2023-02-04T02:40:05;-7.40;99.90
45715;DHT22;31430;61.646;24.704;2023-02-04T02:42:31;-7.40;99.90
45715;DHT22;31430;61.646;24.704;2023-02-04T02:44:58;-7.40;99.90
45715;DHT22;31430;61.646;24.704;2023-02-04T02:47:24;-7.50;99.90
45715;DHT22;31430;61.646;24.704;2023-02-04T02:49:52;-7.50;99.90
45715;DHT22;31430;61.646;24.704;2023-02-04T02:52:18;-7.40;99.90
45715;DHT22;31430;61.646;24.704;2023-02-04T02:54:45;-7.50;99.90
45715;DHT22;31430;61.646;24.704;2023-02-04T02:57:15;-7.50;99.90
45715;DHT22;31430;61.646;24.704;2023-02-04T02:59:41;-7.50;99.90
45715;DHT22;31430;61.646;24.704;2023-02-04T03:02:08;-7.50;99.90
45715;DHT22;31430;61.646;24.704;2023-02-04T03:04:45;-7.50;99.90
45715;DHT22;31430;61.646;24.704;2023-02-04T03:07:11;-7.50;99.90
45715;DHT22;31430;61.646;24.704;2023-02-04T03:09:38;-7.50;99.90
45715;DHT22;31430;61.646;24.704;2023-02-04T03:12:04;-7.50;99.90
45715;DHT22;31430;61.646;24.704;2023-02-04T03:14:31;-7.50;99.90
45715;DHT22;31430;61.646;24.704;2023-02-04T03:16:57;-7.50;99.90
45715;DHT22;31430;61.646;24.704;2023-02-04T03:19:25;-7.50;99.90
45715;DHT22;31430;61.646;24.704;2023-02-04T03:21:52;-7.50;99.90
45715;DHT22;31430;61.646;24.704;2023-02-04T03:24:18;-7.50;99.90
45715;DHT22;31430;61.646;24.704;2023-02-04T03:26:44;-7.50;99.90
45715;DHT22;31430;61.646;24.704;2023-02-04T03:29:10;-7.50;99.90
45715;DHT22;31430;61.646;24.704;2023-02-04T03:31:36;-7.50;99.90
45715;DHT22;31430;61.646;24.704;2023-02-04T03:34:03;-7.50;99.90
45715;DHT22;31430;61.646;24.704;2023-02-04T03:36:29;-7.50;99.90
45715;DHT22;31430;61.646;24.704;2023-02-04T03:38:54;-7.60;99.90
45715;DHT22;31430;61.646;24.704;2023-02-04T03:41:20;-7.60;99.90
45715;DHT22;31430;61.646;24.704;2023-02-04T03:43:46;-7.60;99.90
45715;DHT22;31430;61.646;24.704;2023-02-04T03:46:12;-7.60;99.90
45715;DHT22;31430;61.646;24.704;2023-02-04T03:48:38;-7.60;99.90
45715;DHT22;31430;61.646;24.704;2023-02-04T03:51:03;-7.70;99.90
45715;DHT22;31430;61.646;24.704;2023-02-04T03:53:29;-7.60;99.90
45715;DHT22;31430;61.646;24.704;2023-02-04T03:55:55;-7.70;99.90
45715;DHT22;31430;61.646;24.704;2023-02-04T03:58:20;-7.60;99.90
45715;DHT22;31430;61.646;24.704;2023-02-04T04:00:46;-7.70;99.90
45715;DHT22;31430;61.646;24.704;2023-02-04T04:03:12;-7.70;99.90
45715;DHT22;31430;61.646;24.704;2023-02-04T04:05:38;-7.60;99.90
45715;DHT22;31430;61.646;24.704;2023-02-04T04:08:03;-7.70;99.90
45715;DHT22;31430;61.646;24.704;2023-02-04T04:10:29;-7.70;99.90
45715;DHT22;31430;61.646;24.704;2023-02-04T04:12:55;-7.70;99.90
45715;DHT22;31430;61.646;24.704;2023-02-04T04:15:21;-7.70;99.90
45715;DHT22;31430;61.646;24.704;2023-02-04T04:17:46;-7.80;99.90
45715;DHT22;31430;61.646;24.704;2023-02-04T04:20:12;-7.80;99.90
45715;DHT22;31430;61.646;24.704;2023-02-04T04:22:38;-7.80;99.90
45715;DHT22;31430;61.646;24.704;2023-02-04T04:25:04;-7.80;99.90
45715;DHT22;31430;61.646;24.704;2023-02-04T04:27:30;-7.80;99.90
45715;DHT22;31430;61.646;24.704;2023-02-04T04:29:56;-7.90;99.90
45715;DHT22;31430;61.646;24.704;2023-02-04T04:32:22;-7.80;99.90
45715;DHT22;31430;61.646;24.704;2023-02-04T04:34:47;-8.00;99.90
45715;DHT22;31430;61.646;24.704;2023-02-04T04:37:13;-8.10;99.90
45715;DHT22;31430;61.646;24.704;2023-02-04T04:39:39;-8.20;99.90
45715;DHT22;31430;61.646;24.704;2023-02-04T04:42:05;-8.20;99.90
45715;DHT22;31430;61.646;24.704;2023-02-04T04:44:30;-8.30;99.90
45715;DHT22;31430;61.646;24.704;2023-02-04T04:46:56;-8.30;99.90
45715;DHT22;31430;61.646;24.704;2023-02-04T04:49:22;-8.40;99.90
45715;DHT22;31430;61.646;24.704;2023-02-04T04:51:48;-8.40;99.90
45715;DHT22;31430;61.646;24.704;2023-02-04T04:54:14;-8.40;99.90
45715;DHT22;31430;61.646;24.704;2023-02-04T04:56:40;-8.40;99.90
45715;DHT22;31430;61.646;24.704;2023-02-04T04:59:05;-8.30;99.90
45715;DHT22;31430;61.646;24.704;2023-02-04T05:01:32;-8.40;99.90
45715;DHT22;31430;61.646;24.704;2023-02-04T05:03:57;-8.40;99.90
45715;DHT22;31430;61.646;24.704;2023-02-04T05:06:24;-8.30;99.90
45715;DHT22;31430;61.646;24.704;2023-02-04T05:08:51;-8.40;99.90
45715;DHT22;31430;61.646;24.704;2023-02-04T05:11:17;-8.30;99.90
45715;DHT22;31430;61.646;24.704;2023-02-04T05:13:42;-8.40;99.90
45715;DHT22;31430;61.646;24.704;2023-02-04T05:16:08;-8.40;99.90
45715;DHT22;31430;61.646;24.704;2023-02-04T05:18:37;-8.50;99.90
45715;DHT22;31430;61.646;24.704;2023-02-04T05:21:03;-8.60;99.90
45715;DHT22;31430;61.646;24.704;2023-02-04T05:23:29;-8.60;99.90
45715;DHT22;31430;61.646;24.704;2023-02-04T05:25:55;-8.60;99.90
45715;DHT22;31430;61.646;24.704;2023-02-04T05:28:21;-8.60;99.90
45715;DHT22;31430;61.646;24.704;2023-02-04T05:30:47;-8.80;99.90
45715;DHT22;31430;61.646;24.704;2023-02-04T05:33:12;-8.80;99.90
45715;DHT22;31430;61.646;24.704;2023-02-04T05:35:38;-8.80;99.90
45715;DHT22;31430;61.646;24.704;2023-02-04T05:38:04;-8.90;99.90
45715;DHT22;31430;61.646;24.704;2023-02-04T05:40:29;-9.00;99.90
45715;DHT22;31430;61.646;24.704;2023-02-04T05:42:55;-9.20;99.90
45715;DHT22;31430;61.646;24.704;2023-02-04T05:45:21;-9.20;99.90
45715;DHT22;31430;61.646;24.704;2023-02-04T05:47:46;-9.30;99.90
45715;DHT22;31430;61.646;24.704;2023-02-04T05:50:12;-9.40;99.90
45715;DHT22;31430;61.646;24.704;2023-02-04T05:52:38;-9.40;99.90
45715;DHT22;31430;61.646;24.704;2023-02-04T05:55:05;-9.40;99.90
45715;DHT22;31430;61.646;24.704;2023-02-04T05:57:31;-9.50;99.90
45715;DHT22;31430;61.646;24.704;2023-02-04T05:59:57;-9.60;99.90
45715;DHT22;31430;61.646;24.704;2023-02-04T06:02:22;-9.70;99.90
45715;DHT22;31430;61.646;24.704;2023-02-04T06:04:48;-9.70;99.90
45715;DHT22;31430;61.646;24.704;2023-02-04T06:07:14;-9.80;99.90
45715;DHT22;31430;61.646;24.704;2023-02-04T06:09:39;-9.90;99.90
45715;DHT22;31430;61.646;24.704;2023-02-04T06:12:05;-9.90;99.90
45715;DHT22;31430;61.646;24.704;2023-02-04T06:14:31;-9.90;99.90
45715;DHT22;31430;61.646;24.704;2023-02-04T06:16:56;-10.00;99.90
45715;DHT22;31430;61.646;24.704;2023-02-04T06:19:24;-10.00;99.90
45715;DHT22;31430;61.646;24.704;2023-02-04T06:21:49;-10.10;99.90
45715;DHT22;31430;61.646;24.704;2023-02-04T06:24:15;-10.20;99.90
45715;DHT22;31430;61.646;24.704;2023-02-04T06:26:41;-10.20;99.90
45715;DHT22;31430;61.646;24.704;2023-02-04T06:29:06;-10.20;99.90
45715;DHT22;31430;61.646;24.704;2023-02-04T06:31:32;-10.30;99.90
45715;DHT22;31430;61.646;24.704;2023-02-04T06:33:58;-10.30;99.90
45715;DHT22;31430;61.646;24.704;2023-02-04T06:36:23;-10.40;99.90
45715;DHT22;31430;61.646;24.704;2023-02-04T06:38:49;-10.40;99.90
45715;DHT22;31430;61.646;24.704;2023-02-04T06:41:15;-10.30;99.90
45715;DHT22;31430;61.646;24.704;2023-02-04T06:43:40;-10.30;99.90
45715;DHT22;31430;61.646;24.704;2023-02-04T06:46:06;-10.20;99.90
45715;DHT22;31430;61.646;24.704;2023-02-04T06:48:32;-10.20;99.90
45715;DHT22;31430;61.646;24.704;2023-02-04T06:50:57;-10.30;99.90
45715;DHT22;31430;61.646;24.704;2023-02-04T06:53:23;-10.20;99.90
45715;DHT22;31430;61.646;24.704;2023-02-04T06:55:49;-10.30;99.90
45715;DHT22;31430;61.646;24.704;2023-02-04T06:58:14;-10.30;99.90
45715;DHT22;31430;61.646;24.704;2023-02-04T07:00:40;-10.30;99.90
45715;DHT22;31430;61.646;24.704;2023-02-04T07:03:06;-10.30;99.90
45715;DHT22;31430;61.646;24.704;2023-02-04T07:05:32;-10.20;99.90
45715;DHT22;31430;61.646;24.704;2023-02-04T07:07:57;-10.30;99.90
45715;DHT22;31430;61.646;24.704;2023-02-04T07:10:23;-10.30;99.90
45715;DHT22;31430;61.646;24.704;2023-02-04T07:12:49;-10.30;99.90
45715;DHT22;31430;61.646;24.704;2023-02-04T07:15:15;-10.30;99.90
45715;DHT22;31430;61.646;24.704;2023-02-04T07:17:41;-10.30;99.90
45715;DHT22;31430;61.646;24.704;2023-02-04T07:20:07;-10.30;99.90
45715;DHT22;31430;61.646;24.704;2023-02-04T07:22:33;-10.30;99.90
45715;DHT22;31430;61.646;24.704;2023-02-04T07:24:59;-10.30;99.90
45715;DHT22;31430;61.646;24.704;2023-02-04T07:27:25;-10.20;99.90
45715;DHT22;31430;61.646;24.704;2023-02-04T07:29:50;-10.20;99.90
45715;DHT22;31430;61.646;24.704;2023-02-04T07:32:16;-10.10;99.90
45715;DHT22;31430;61.646;24.704;2023-02-04T07:34:42;-10.10;99.90
45715;DHT22;31430;61.646;24.704;2023-02-04T07:37:07;-10.10;99.90
45715;DHT22;31430;61.646;24.704;2023-02-04T07:39:33;-10.10;99.90
45715;DHT22;31430;61.646;24.704;2023-02-04T07:41:59;-10.00;99.90
45715;DHT22;31430;61.646;24.704;2023-02-04T07:44:24;-10.00;99.90
45715;DHT22;31430;61.646;24.704;2023-02-04T07:46:50;-10.00;99.90
45715;DHT22;31430;61.646;24.704;2023-02-04T07:49:16;-9.90;99.90
45715;DHT22;31430;61.646;24.704;2023-02-04T07:51:41;-9.90;99.90
45715;DHT22;31430;61.646;24.704;2023-02-04T07:54:07;-9.90;99.90
45715;DHT22;31430;61.646;24.704;2023-02-04T07:56:33;-9.80;99.90
45715;DHT22;31430;61.646;24.704;2023-02-04T07:58:58;-9.80;99.90
45715;DHT22;31430;61.646;24.704;2023-02-04T08:01:24;-9.80;99.90
45715;DHT22;31430;61.646;24.704;2023-02-04T08:03:50;-9.70;99.90
45715;DHT22;31430;61.646;24.704;2023-02-04T08:06:15;-9.70;99.90
45715;DHT22;31430;61.646;24.704;2023-02-04T08:08:41;-9.70;99.90
45715;DHT22;31430;61.646;24.704;2023-02-04T08:11:07;-9.60;99.90
45715;DHT22;31430;61.646;24.704;2023-02-04T08:13:32;-9.50;99.90
45715;DHT22;31430;61.646;24.704;2023-02-04T08:15:58;-9.40;99.90
45715;DHT22;31430;61.646;24.704;2023-02-04T08:18:24;-9.40;99.90
45715;DHT22;31430;61.646;24.704;2023-02-04T08:20:50;-9.30;99.90
45715;DHT22;31430;61.646;24.704;2023-02-04T08:23:16;-9.30;99.90
45715;DHT22;31430;61.646;24.704;2023-02-04T08:25:41;-9.20;99.90
45715;DHT22;31430;61.646;24.704;2023-02-04T08:28:07;-9.20;99.90
45715;DHT22;31430;61.646;24.704;2023-02-04T08:30:33;-9.20;99.90
45715;DHT22;31430;61.646;24.704;2023-02-04T08:32:58;-9.20;99.90
45715;DHT22;31430;61.646;24.704;2023-02-04T08:35:24;-9.20;99.90
45715;DHT22;31430;61.646;24.704;2023-02-04T08:37:50;-9.20;99.90
45715;DHT22;31430;61.646;24.704;2023-02-04T08:40:15;-9.00;99.90
45715;DHT22;31430;61.646;24.704;2023-02-04T08:42:41;-9.00;99.90
45715;DHT22;31430;61.646;24.704;2023-02-04T08:45:07;-9.00;99.90
45715;DHT22;31430;61.646;24.704;2023-02-04T08:47:33;-8.90;99.90
45715;DHT22;31430;61.646;24.704;2023-02-04T08:49:59;-8.80;99.90
45715;DHT22;31430;61.646;24.704;2023-02-04T08:52:24;-8.80;99.90
45715;DHT22;31430;61.646;24.704;2023-02-04T08:54:50;-8.80;99.90
45715;DHT22;31430;61.646;24.704;2023-02-04T08:57:16;-9.00;99.90
45715;DHT22;31430;61.646;24.704;2023-02-04T08:59:41;-8.80;99.90
45715;DHT22;31430;61.646;24.704;2023-02-04T09:02:08;-8.80;99.90
45715;DHT22;31430;61.646;24.704;2023-02-04T09:04:34;-8.80;99.90
45715;DHT22;31430;61.646;24.704;2023-02-04T09:07:00;-8.70;99.90
45715;DHT22;31430;61.646;24.704;2023-02-04T09:09:26;-8.70;99.90
45715;DHT22;31430;61.646;24.704;2023-02-04T09:11:51;-8.60;99.90
45715;DHT22;31430;61.646;24.704;2023-02-04T09:14:17;-8.50;99.90
45715;DHT22;31430;61.646;24.704;2023-02-04T09:16:43;-8.40;99.90
45715;DHT22;31430;61.646;24.704;2023-02-04T09:19:08;-8.40;99.90
45715;DHT22;31430;61.646;24.704;2023-02-04T09:21:37;-8.40;99.90
45715;DHT22;31430;61.646;24.704;2023-02-04T09:24:03;-8.50;99.90
45715;DHT22;31430;61.646;24.704;2023-02-04T09:26:28;-8.50;99.90
45715;DHT22;31430;61.646;24.704;2023-02-04T09:28:54;-8.50;99.90
45715;DHT22;31430;61.646;24.704;2023-02-04T09:31:20;-8.60;99.90
45715;DHT22;31430;61.646;24.704;2023-02-04T09:33:45;-8.60;99.90
45715;DHT22;31430;61.646;24.704;2023-02-04T09:36:11;-8.50;99.90
45715;DHT22;31430;61.646;24.704;2023-02-04T09:38:38;-8.60;99.90
45715;DHT22;31430;61.646;24.704;2023-02-04T09:41:07;-8.40;99.90
45715;DHT22;31430;61.646;24.704;2023-02-04T09:43:40;-8.20;99.90
45715;DHT22;31430;61.646;24.704;2023-02-04T09:46:15;-8.10;99.90
45715;DHT22;31430;61.646;24.704;2023-02-04T09:48:42;-8.00;99.90
45715;DHT22;31430;61.646;24.704;2023-02-04T09:51:11;-8.10;99.90
45715;DHT22;31430;61.646;24.704;2023-02-04T09:53:38;-8.10;99.90
45715;DHT22;31430;61.646;24.704;2023-02-04T09:56:04;-8.00;99.90
45715;DHT22;31430;61.646;24.704;2023-02-04T09:58:33;-8.00;99.90
45715;DHT22;31430;61.646;24.704;2023-02-04T10:01:20;-7.90;99.90
45715;DHT22;31430;61.646;24.704;2023-02-04T10:03:47;-7.80;99.90
45715;DHT22;31430;61.646;24.704;2023-02-04T10:06:19;-7.90;99.90
45715;DHT22;31430;61.646;24.704;2023-02-04T10:08:47;-7.80;99.90
45715;DHT22;31430;61.646;24.704;2023-02-04T10:11:14;-7.80;99.90
45715;DHT22;31430;61.646;24.704;2023-02-04T10:13:46;-7.80;99.90
45715;DHT22;31430;61.646;24.704;2023-02-04T10:16:29;-7.80;99.90
45715;DHT22;31430;61.646;24.704;2023-02-04T10:19:00;-7.60;99.90
45715;DHT22;31430;61.646;24.704;2023-02-04T10:21:29;-7.70;99.90
45715;DHT22;31430;61.646;24.704;2023-02-04T10:23:57;-7.60;99.90
45715;DHT22;31430;61.646;24.704;2023-02-04T10:26:26;-7.60;99.90
45715;DHT22;31430;61.646;24.704;2023-02-04T10:29:00;-7.50;99.90
45715;DHT22;31430;61.646;24.704;2023-02-04T10:31:41;-7.50;99.90
45715;DHT22;31430;61.646;24.704;2023-02-04T10:36:57;-7.60;99.90
45715;DHT22;31430;61.646;24.704;2023-02-04T10:39:25;-7.60;99.90
45715;DHT22;31430;61.646;24.704;2023-02-04T10:41:55;-7.50;99.90
45715;DHT22;31430;61.646;24.704;2023-02-04T10:44:26;-7.50;99.90
45715;DHT22;31430;61.646;24.704;2023-02-04T10:47:22;-7.50;99.90
45715;DHT22;31430;61.646;24.704;2023-02-04T10:50:18;-7.50;99.90
45715;DHT22;31430;61.646;24.704;2023-02-04T10:52:52;-7.50;99.90
45715;DHT22;31430;61.646;24.704;2023-02-04T10:55:22;-7.40;99.90
45715;DHT22;31430;61.646;24.704;2023-02-04T10:57:50;-7.40;99.90
45715;DHT22;31430;61.646;24.704;2023-02-04T11:00:19;-7.40;99.90
45715;DHT22;31430;61.646;24.704;2023-02-04T11:02:58;-7.30;99.90
45715;DHT22;31430;61.646;24.704;2023-02-04T11:05:34;-7.40;99.90
45715;DHT22;31430;61.646;24.704;2023-02-04T11:08:01;-7.30;99.90
45715;DHT22;31430;61.646;24.704;2023-02-04T11:10:30;-7.40;99.90
45715;DHT22;31430;61.646;24.704;2023-02-04T11:15:44;-7.30;99.90
45715;DHT22;31430;61.646;24.704;2023-02-04T11:20:46;-7.20;99.90
45715;DHT22;31430;61.646;24.704;2023-02-04T11:26:10;-7.20;99.90
45715;DHT22;31430;61.646;24.704;2023-02-04T11:31:59;-7.10;99.90
45715;DHT22;31430;61.646;24.704;2023-02-04T11:42:02;-7.10;99.90
45715;DHT22;31430;61.646;24.704;2023-02-04T11:44:28;-7.00;99.90
45715;DHT22;31430;61.646;24.704;2023-02-04T11:46:55;-7.00;99.90
45715;DHT22;31430;61.646;24.704;2023-02-04T11:49:23;-6.90;99.90
45715;DHT22;31430;61.646;24.704;2023-02-04T11:51:50;-6.80;99.60
45715;DHT22;31430;61.646;24.704;2023-02-04T11:54:17;-6.80;99.20
45715;DHT22;31430;61.646;24.704;2023-02-04T11:56:47;-6.90;98.80
45715;DHT22;31430;61.646;24.704;2023-02-04T11:59:13;-6.80;98.40
45715;DHT22;31430;61.646;24.704;2023-02-04T12:01:39;-6.80;98.80
45715;DHT22;31430;61.646;24.704;2023-02-04T12:04:07;-6.80;98.30
45715;DHT22;31430;61.646;24.704;2023-02-04T12:06:56;-6.80;98.00
45715;DHT22;31430;61.646;24.704;2023-02-04T12:09:27;-6.80;97.90
45715;DHT22;31430;61.646;24.704;2023-02-04T12:12:01;-6.80;98.20
45715;DHT22;31430;61.646;24.704;2023-02-04T12:14:33;-6.80;97.90
45715;DHT22;31430;61.646;24.704;2023-02-04T12:16:59;-6.70;97.80
45715;DHT22;31430;61.646;24.704;2023-02-04T12:19:24;-6.70;97.60
45715;DHT22;31430;61.646;24.704;2023-02-04T12:21:50;-6.90;98.50
45715;DHT22;31430;61.646;24.704;2023-02-04T12:24:16;-6.80;98.60
45715;DHT22;31430;61.646;24.704;2023-02-04T12:26:41;-6.70;98.80
45715;DHT22;31430;61.646;24.704;2023-02-04T12:29:07;-6.70;98.40
45715;DHT22;31430;61.646;24.704;2023-02-04T12:31:34;-6.70;98.40
45715;DHT22;31430;61.646;24.704;2023-02-04T12:34:00;-6.70;98.00
45715;DHT22;31430;61.646;24.704;2023-02-04T12:36:26;-6.60;97.80
45715;DHT22;31430;61.646;24.704;2023-02-04T12:38:54;-6.60;97.20
45715;DHT22;31430;61.646;24.704;2023-02-04T12:41:20;-6.60;97.50
45715;DHT22;31430;61.646;24.704;2023-02-04T12:43:46;-6.70;98.40
45715;DHT22;31430;61.646;24.704;2023-02-04T12:46:15;-6.80;98.30
45715;DHT22;31430;61.646;24.704;2023-02-04T12:48:41;-6.80;99.00
45715;DHT22;31430;61.646;24.704;2023-02-04T12:51:07;-6.70;98.90
45715;DHT22;31430;61.646;24.704;2023-02-04T12:53:32;-6.80;98.20
45715;DHT22;31430;61.646;24.704;2023-02-04T12:55:58;-6.70;98.80
45715;DHT22;31430;61.646;24.704;2023-02-04T12:58:24;-6.80;99.10
45715;DHT22;31430;61.646;24.704;2023-02-04T13:00:50;-6.80;99.90
45715;DHT22;31430;61.646;24.704;2023-02-04T13:03:15;-6.80;98.80
45715;DHT22;31430;61.646;24.704;2023-02-04T13:05:41;-6.70;98.40
45715;DHT22;31430;61.646;24.704;2023-02-04T13:08:07;-6.80;98.50
45715;DHT22;31430;61.646;24.704;2023-02-04T13:10:33;-6.90;98.80
45715;DHT22;31430;61.646;24.704;2023-02-04T13:12:59;-6.90;99.90
45715;DHT22;31430;61.646;24.704;2023-02-04T13:15:25;-7.00;99.90
45715;DHT22;31430;61.646;24.704;2023-02-04T13:17:51;-6.90;99.90
45715;DHT22;31430;61.646;24.704;2023-02-04T13:20:17;-7.00;99.90
45715;DHT22;31430;61.646;24.704;2023-02-04T13:22:42;-7.10;99.90
45715;DHT22;31430;61.646;24.704;2023-02-04T13:25:08;-7.10;99.90
45715;DHT22;31430;61.646;24.704;2023-02-04T13:27:36;-7.10;99.90
45715;DHT22;31430;61.646;24.704;2023-02-04T13:30:06;-7.40;99.90
45715;DHT22;31430;61.646;24.704;2023-02-04T13:32:32;-7.50;99.90
45715;DHT22;31430;61.646;24.704;2023-02-04T13:34:58;-7.50;99.90
45715;DHT22;31430;61.646;24.704;2023-02-04T13:37:24;-7.60;99.90
45715;DHT22;31430;61.646;24.704;2023-02-04T13:39:50;-7.70;99.90
45715;DHT22;31430;61.646;24.704;2023-02-04T13:42:15;-7.80;99.90
45715;DHT22;31430;61.646;24.704;2023-02-04T13:44:41;-7.70;99.90
45715;DHT22;31430;61.646;24.704;2023-02-04T13:47:06;-7.80;99.90
45715;DHT22;31430;61.646;24.704;2023-02-04T13:49:32;-7.80;99.90
45715;DHT22;31430;61.646;24.704;2023-02-04T13:51:58;-7.90;99.90
45715;DHT22;31430;61.646;24.704;2023-02-04T13:54:24;-8.10;99.90
45715;DHT22;31430;61.646;24.704;2023-02-04T13:56:50;-8.20;99.90
45715;DHT22;31430;61.646;24.704;2023-02-04T13:59:15;-8.10;99.90
45715;DHT22;31430;61.646;24.704;2023-02-04T14:01:41;-8.20;99.90
45715;DHT22;31430;61.646;24.704;2023-02-04T14:04:07;-8.30;99.90
45715;DHT22;31430;61.646;24.704;2023-02-04T14:06:32;-8.30;99.90
45715;DHT22;31430;61.646;24.704;2023-02-04T14:09:01;-8.40;99.90
45715;DHT22;31430;61.646;24.704;2023-02-04T14:11:27;-8.50;99.90
45715;DHT22;31430;61.646;24.704;2023-02-04T14:13:52;-8.60;99.90
45715;DHT22;31430;61.646;24.704;2023-02-04T14:16:18;-8.70;99.90
45715;DHT22;31430;61.646;24.704;2023-02-04T14:18:44;-8.80;99.90
45715;DHT22;31430;61.646;24.704;2023-02-04T14:21:09;-8.90;99.90
45715;DHT22;31430;61.646;24.704;2023-02-04T14:23:35;-8.80;99.90
45715;DHT22;31430;61.646;24.704;2023-02-04T14:26:01;-8.90;99.90
45715;DHT22;31430;61.646;24.704;2023-02-04T14:28:27;-9.00;99.90
45715;DHT22;31430;61.646;24.704;2023-02-04T14:30:52;-9.00;99.90
45715;DHT22;31430;61.646;24.704;2023-02-04T14:33:19;-9.10;99.90
45715;DHT22;31430;61.646;24.704;2023-02-04T14:35:45;-9.20;99.90
45715;DHT22;31430;61.646;24.704;2023-02-04T14:38:11;-9.30;99.90
45715;DHT22;31430;61.646;24.704;2023-02-04T14:40:43;-9.40;99.90
45715;DHT22;31430;61.646;24.704;2023-02-04T14:43:09;-9.50;99.90
45715;DHT22;31430;61.646;24.704;2023-02-04T14:45:36;-9.70;99.90
45715;DHT22;31430;61.646;24.704;2023-02-04T14:48:02;-9.80;99.90
45715;DHT22;31430;61.646;24.704;2023-02-04T14:50:28;-9.80;99.90
45715;DHT22;31430;61.646;24.704;2023-02-04T14:52:55;-9.80;99.90
45715;DHT22;31430;61.646;24.704;2023-02-04T14:55:22;-9.80;99.90
45715;DHT22;31430;61.646;24.704;2023-02-04T14:57:48;-9.90;99.90
45715;DHT22;31430;61.646;24.704;2023-02-04T15:00:14;-9.90;99.90
45715;DHT22;31430;61.646;24.704;2023-02-04T15:02:40;-9.90;99.90
45715;DHT22;31430;61.646;24.704;2023-02-04T15:05:07;-10.10;99.90
45715;DHT22;31430;61.646;24.704;2023-02-04T15:07:33;-10.10;99.90
45715;DHT22;31430;61.646;24.704;2023-02-04T15:09:59;-10.20;99.90
45715;DHT22;31430;61.646;24.704;2023-02-04T15:12:24;-10.20;99.90
45715;DHT22;31430;61.646;24.704;2023-02-04T15:14:50;-10.20;99.90
45715;DHT22;31430;61.646;24.704;2023-02-04T15:17:16;-10.20;99.90
45715;DHT22;31430;61.646;24.704;2023-02-04T15:19:43;-10.30;99.90
45715;DHT22;31430;61.646;24.704;2023-02-04T15:22:09;-10.40;99.90
45715;DHT22;31430;61.646;24.704;2023-02-04T15:24:34;-10.60;99.90
45715;DHT22;31430;61.646;24.704;2023-02-04T15:27:00;-10.60;99.90
45715;DHT22;31430;61.646;24.704;2023-02-04T15:29:26;-10.80;99.90
45715;DHT22;31430;61.646;24.704;2023-02-04T15:31:52;-10.80;99.90
45715;DHT22;31430;61.646;24.704;2023-02-04T15:34:17;-10.90;99.90
45715;DHT22;31430;61.646;24.704;2023-02-04T15:36:43;-11.00;99.90